createdAt,value
2022-12-26T00:01:34.651Z,9.18
2022-12-26T00:04:04.929Z,9.19
2022-12-26T00:06:34.679Z,9.18
2022-12-26T00:09:06.323Z,9.17
2022-12-26T00:11:36.674Z,9.17
2022-12-26T00:14:07.221Z,9.17
2022-12-26T00:16:36.940Z,9.15
2022-12-26T00:19:07.166Z,9.16
2022-12-26T00:21:35.702Z,9.10
2022-12-26T00:24:05.465Z,9.18
2022-12-26T00:26:35.817Z,9.18
2022-12-26T00:29:05.296Z,9.19
2022-12-26T00:31:35.530Z,9.19
2022-12-26T00:34:04.484Z,9.00
2022-12-26T00:36:34.962Z,8.97
2022-12-26T00:39:05.434Z,9.08
2022-12-26T00:41:34.640Z,9.08
2022-12-26T00:44:03.344Z,9.16
2022-12-26T00:46:32.571Z,9.20
2022-12-26T00:49:01.391Z,9.22
2022-12-26T00:51:30.580Z,9.23
2022-12-26T00:54:00.261Z,9.22
2022-12-26T00:56:29.175Z,8.89
2022-12-26T00:58:58.195Z,9.25
2022-12-26T01:01:26.618Z,9.25
2022-12-26T01:03:55.492Z,9.09
2022-12-26T01:06:24.734Z,9.24
2022-12-26T01:08:54.142Z,9.23
2022-12-26T01:11:38.323Z,9.20
2022-12-26T01:14:08.233Z,9.24
2022-12-26T01:16:38.777Z,9.32
2022-12-26T01:19:07.781Z,9.33
2022-12-26T01:21:37.567Z,9.32
2022-12-26T01:24:06.986Z,9.32
2022-12-26T01:26:37.916Z,9.32
2022-12-26T01:29:06.801Z,9.31
2022-12-26T01:31:35.186Z,9.30
2022-12-26T01:34:05.552Z,9.29
2022-12-26T01:36:34.107Z,9.28
2022-12-26T01:39:02.938Z,9.09
2022-12-26T01:41:33.255Z,9.22
2022-12-26T01:44:05.353Z,9.23
2022-12-26T01:46:39.876Z,9.21
2022-12-26T01:49:18.383Z,9.20
2022-12-26T01:51:54.622Z,9.16
2022-12-26T01:54:38.009Z,9.14
2022-12-26T01:57:14.664Z,8.99
2022-12-26T01:59:46.795Z,9.08
2022-12-26T02:02:17.706Z,9.10
2022-12-26T02:05:07.879Z,9.11
2022-12-26T02:07:39.499Z,9.11
2022-12-26T02:10:11.753Z,9.11
2022-12-26T02:12:41.438Z,9.03
2022-12-26T02:15:15.176Z,9.13
2022-12-26T02:17:44.208Z,9.09
2022-12-26T02:20:20.818Z,9.12
2022-12-26T02:23:16.434Z,9.13
2022-12-26T02:26:23.346Z,9.13
2022-12-26T02:29:11.945Z,9.10
2022-12-26T02:31:49.882Z,9.10
2022-12-26T02:34:25.727Z,9.11
2022-12-26T02:37:13.095Z,8.92
2022-12-26T02:39:58.101Z,9.02
2022-12-26T02:42:37.220Z,8.92
2022-12-26T02:45:33.109Z,8.87
2022-12-26T02:48:10.233Z,8.91
2022-12-26T02:51:10.686Z,8.90
2022-12-26T02:54:06.489Z,8.89
2022-12-26T02:56:58.051Z,8.82
2022-12-26T02:59:57.328Z,8.75
2022-12-26T03:02:50.300Z,8.73
2022-12-26T03:05:44.183Z,8.78
2022-12-26T03:08:38.176Z,8.76
2022-12-26T03:11:24.624Z,8.77
2022-12-26T03:13:55.496Z,8.80
2022-12-26T03:16:43.739Z,8.80
2022-12-26T03:19:14.766Z,8.80
2022-12-26T03:21:47.742Z,8.81
2022-12-26T03:24:18.338Z,8.82
2022-12-26T03:26:52.196Z,8.81
2022-12-26T03:29:41.027Z,8.82
2022-12-26T03:32:11.553Z,8.84
2022-12-26T03:34:42.550Z,8.87
2022-12-26T03:37:48.269Z,8.69
2022-12-26T03:40:45.041Z,8.89
2022-12-26T03:43:49.359Z,8.91
2022-12-26T03:46:41.170Z,8.79
2022-12-26T03:49:34.306Z,8.86
2022-12-26T03:52:28.280Z,8.77
2022-12-26T03:55:23.573Z,8.84
2022-12-26T03:58:14.235Z,8.87
2022-12-26T04:01:01.633Z,8.88
2022-12-26T04:03:49.490Z,8.89
2022-12-26T04:06:39.775Z,8.91
2022-12-26T04:09:31.567Z,8.87
2022-12-26T04:12:21.670Z,8.82
2022-12-26T04:15:13.575Z,8.87
2022-12-26T04:18:15.971Z,8.90
2022-12-26T04:20:52.479Z,8.95
2022-12-26T04:23:44.782Z,8.97
2022-12-26T04:26:39.086Z,8.97
2022-12-26T04:29:27.011Z,8.96
2022-12-26T04:32:20.626Z,9.00
2022-12-26T04:35:14.628Z,8.93
2022-12-26T04:38:04.672Z,8.99
2022-12-26T04:40:57.223Z,9.01
2022-12-26T04:43:49.424Z,9.03
2022-12-26T04:46:24.420Z,8.96
2022-12-26T04:49:13.495Z,9.01
2022-12-26T04:51:42.407Z,8.98
2022-12-26T04:54:10.771Z,9.01
2022-12-26T04:56:40.301Z,8.65
2022-12-26T04:59:08.625Z,9.04
2022-12-26T05:01:56.947Z,9.04
2022-12-26T05:04:43.726Z,8.89
2022-12-26T05:07:35.259Z,8.98
2022-12-26T05:10:06.184Z,8.90
2022-12-26T05:12:34.553Z,8.91
2022-12-26T05:15:03.735Z,8.92
2022-12-26T05:17:51.043Z,8.91
2022-12-26T05:20:37.625Z,8.92
2022-12-26T05:23:26.576Z,8.90
2022-12-26T05:26:13.469Z,8.83
2022-12-26T05:28:45.547Z,8.84
2022-12-26T05:31:17.221Z,8.72
2022-12-26T05:34:04.422Z,8.50
2022-12-26T05:36:37.203Z,8.71
2022-12-26T05:39:05.916Z,8.72
2022-12-26T05:41:34.724Z,8.71
2022-12-26T05:44:03.201Z,8.69
2022-12-26T05:46:31.743Z,8.68
2022-12-26T05:49:01.752Z,8.75
2022-12-26T05:51:30.555Z,8.76
2022-12-26T05:53:59.023Z,8.80
2022-12-26T05:56:27.582Z,8.79
2022-12-26T05:58:56.726Z,8.62
2022-12-26T06:01:26.776Z,8.61
2022-12-26T06:03:57.729Z,8.62
2022-12-26T06:06:29.854Z,8.62
2022-12-26T06:08:58.865Z,8.62
2022-12-26T06:11:28.449Z,8.62
2022-12-26T06:13:57.097Z,8.62
2022-12-26T06:16:26.463Z,8.49
2022-12-26T06:18:56.177Z,8.61
2022-12-26T06:21:25.314Z,8.60
2022-12-26T06:23:55.049Z,8.59
2022-12-26T06:26:23.861Z,8.58
2022-12-26T06:28:52.495Z,8.51
2022-12-26T06:31:23.701Z,8.59
2022-12-26T06:33:53.586Z,8.57
2022-12-26T06:36:25.223Z,8.54
2022-12-26T06:38:56.893Z,8.48
2022-12-26T06:41:26.130Z,8.46
2022-12-26T06:43:55.861Z,8.47
2022-12-26T06:46:27.042Z,8.45
2022-12-26T06:48:55.889Z,8.46
2022-12-26T06:51:26.672Z,8.45
2022-12-26T06:53:56.501Z,8.44
2022-12-26T06:56:27.693Z,8.49
2022-12-26T06:58:56.803Z,8.43
2022-12-26T07:01:26.196Z,8.49
2022-12-26T07:03:55.769Z,8.50
2022-12-26T07:06:27.911Z,8.49
2022-12-26T07:08:59.440Z,8.48
2022-12-26T07:11:31.088Z,8.62
2022-12-26T07:14:00.195Z,8.64
2022-12-26T07:16:29.926Z,8.51
2022-12-26T07:18:59.907Z,8.56
2022-12-26T07:21:33.454Z,8.57
2022-12-26T07:24:08.056Z,8.50
2022-12-26T07:26:36.449Z,8.55
2022-12-26T07:29:05.520Z,8.59
2022-12-26T07:31:34.035Z,8.56
2022-12-26T07:34:03.234Z,8.57
2022-12-26T07:36:31.656Z,8.66
2022-12-26T07:39:00.429Z,8.66
2022-12-26T07:41:48.338Z,8.65
2022-12-26T07:44:16.929Z,8.68
2022-12-26T07:46:46.687Z,8.70
2022-12-26T07:49:15.641Z,8.35
2022-12-26T07:51:44.596Z,8.77
2022-12-26T07:54:13.949Z,8.78
2022-12-26T07:56:44.592Z,8.72
2022-12-26T07:59:15.774Z,8.79
2022-12-26T08:01:45.044Z,8.17
2022-12-26T08:04:15.102Z,8.77
2022-12-26T08:06:43.800Z,8.88
2022-12-26T08:09:15.951Z,8.94
2022-12-26T08:11:46.853Z,9.00
2022-12-26T08:14:17.289Z,9.06
2022-12-26T08:16:51.328Z,9.13
2022-12-26T08:19:22.649Z,9.17
2022-12-26T08:21:51.028Z,9.15
2022-12-26T08:24:19.960Z,9.26
2022-12-26T08:26:49.653Z,9.32
2022-12-26T08:29:19.456Z,9.39
2022-12-26T08:31:48.490Z,9.56
2022-12-26T08:34:17.129Z,9.80
2022-12-26T08:36:46.350Z,10.04
2022-12-26T08:39:14.932Z,10.05
2022-12-26T08:41:43.411Z,10.09
2022-12-26T08:44:30.858Z,10.08
2022-12-26T08:46:59.785Z,10.23
2022-12-26T08:49:28.178Z,10.32
2022-12-26T08:51:56.890Z,10.34
2022-12-26T08:54:25.191Z,10.29
2022-12-26T08:56:53.537Z,10.31
2022-12-26T08:59:24.088Z,10.29
2022-12-26T09:01:52.593Z,10.32
2022-12-26T09:04:22.066Z,10.36
2022-12-26T09:06:50.551Z,10.61
2022-12-26T09:09:19.363Z,10.46
2022-12-26T09:11:47.664Z,10.57
2022-12-26T09:14:16.437Z,10.48
2022-12-26T09:16:51.064Z,10.45
2022-12-26T09:19:21.664Z,10.44
2022-12-26T09:22:13.331Z,10.45
2022-12-26T09:24:41.869Z,10.40
2022-12-26T09:27:11.221Z,10.52
2022-12-26T09:29:41.706Z,10.56
2022-12-26T09:32:12.183Z,10.55
2022-12-26T09:34:40.674Z,10.57
2022-12-26T09:37:11.286Z,10.58
2022-12-26T09:39:40.177Z,10.58
2022-12-26T09:42:24.634Z,10.70
2022-12-26T09:45:00.981Z,10.65
2022-12-26T09:47:36.071Z,10.77
2022-12-26T09:50:19.444Z,10.81
2022-12-26T09:52:52.060Z,10.76
2022-12-26T09:55:43.047Z,10.69
2022-12-26T09:58:24.142Z,10.81
2022-12-26T10:00:58.786Z,10.87
2022-12-26T10:03:34.490Z,10.74
2022-12-26T10:06:12.231Z,10.90
2022-12-26T10:08:55.875Z,11.05
2022-12-26T10:11:35.941Z,11.17
2022-12-26T10:21:35.700Z,11.41
2022-12-26T10:24:26.400Z,11.31
2022-12-26T10:27:35.195Z,11.45
2022-12-26T10:30:16.853Z,11.87
2022-12-26T10:33:24.285Z,11.94
2022-12-26T10:35:54.457Z,12.00
2022-12-26T10:38:31.786Z,11.92
2022-12-26T10:41:54.925Z,12.11
2022-12-26T10:44:58.018Z,12.05
2022-12-26T10:48:25.006Z,12.12
2022-12-26T10:54:44.640Z,12.73
2022-12-26T10:57:31.610Z,12.99
2022-12-26T11:00:01.487Z,13.23
2022-12-26T11:02:32.454Z,13.91
2022-12-26T11:07:58.510Z,13.73
2022-12-26T11:10:30.116Z,13.77
2022-12-26T11:13:03.777Z,14.05
2022-12-26T11:15:35.118Z,13.95
2022-12-26T11:18:18.959Z,13.80
2022-12-26T11:20:48.594Z,13.76
2022-12-26T11:23:29.037Z,13.73
2022-12-26T11:25:59.004Z,13.59
2022-12-26T11:28:35.719Z,13.78
2022-12-26T11:31:07.549Z,13.69
2022-12-26T11:33:43.240Z,13.80
2022-12-26T11:36:19.241Z,13.76
2022-12-26T11:38:52.727Z,13.72
2022-12-26T11:41:40.173Z,13.60
2022-12-26T11:44:21.321Z,13.46
2022-12-26T11:46:54.154Z,13.54
2022-12-26T11:49:29.784Z,13.50
2022-12-26T11:52:00.063Z,13.35
2022-12-26T11:54:35.627Z,13.48
2022-12-26T11:57:13.008Z,13.36
2022-12-26T11:59:43.740Z,13.35
2022-12-26T12:02:22.578Z,13.33
2022-12-26T12:04:53.873Z,13.20
2022-12-26T12:07:49.056Z,13.14
2022-12-26T12:10:54.854Z,13.03
2022-12-26T12:13:36.231Z,12.90
2022-12-26T12:16:23.557Z,12.79
2022-12-26T12:18:58.947Z,12.68
2022-12-26T12:21:35.517Z,12.54
2022-12-26T12:41:47.044Z,11.97
2022-12-26T12:57:25.340Z,11.47
2022-12-26T13:00:30.105Z,11.43
2022-12-26T13:03:26.860Z,11.39
2022-12-26T13:06:32.246Z,11.33
2022-12-26T13:09:36.073Z,11.33
2022-12-26T13:12:27.479Z,11.26
2022-12-26T13:15:49.218Z,11.22
2022-12-26T13:18:46.891Z,11.11
2022-12-26T13:21:51.044Z,11.11
2022-12-26T13:27:55.189Z,11.02
2022-12-26T13:30:44.388Z,10.96
2022-12-26T13:33:21.357Z,10.89
2022-12-26T13:36:04.271Z,10.85
2022-12-26T13:39:25.699Z,11.02
2022-12-26T13:42:17.397Z,10.96
2022-12-26T13:44:53.311Z,10.96
2022-12-26T13:47:35.809Z,11.01
2022-12-26T13:50:48.562Z,10.98
2022-12-26T13:53:33.335Z,10.87
2022-12-26T13:56:15.834Z,10.91
2022-12-26T13:58:57.421Z,10.87
2022-12-26T14:01:44.641Z,10.95
2022-12-26T14:04:42.063Z,10.91
2022-12-26T14:07:28.665Z,10.81
2022-12-26T14:10:07.944Z,10.86
2022-12-26T14:12:53.957Z,10.84
2022-12-26T14:15:33.386Z,10.80
2022-12-26T14:18:28.614Z,10.81
2022-12-26T14:25:53.347Z,10.62
2022-12-26T14:28:31.928Z,10.10
2022-12-26T14:34:50.009Z,10.27
2022-12-26T14:37:26.342Z,10.07
2022-12-26T14:40:09.727Z,10.21
2022-12-26T14:43:27.573Z,10.33
2022-12-26T14:45:57.829Z,10.54
2022-12-26T14:48:54.909Z,10.51
2022-12-26T14:51:38.403Z,10.53
2022-12-26T14:54:36.144Z,10.42
2022-12-26T14:57:34.336Z,10.43
2022-12-26T15:00:33.466Z,10.58
2022-12-26T15:07:48.077Z,10.75
2022-12-26T15:10:46.012Z,10.56
2022-12-26T15:13:44.041Z,10.27
2022-12-26T15:16:27.724Z,10.20
2022-12-26T15:19:31.519Z,10.22
2022-12-26T15:22:21.880Z,10.08
2022-12-26T15:25:20.532Z,9.95
2022-12-26T15:28:23.398Z,10.00
2022-12-26T15:31:09.737Z,9.95
2022-12-26T15:33:41.727Z,9.91
2022-12-26T15:36:23.585Z,9.86
2022-12-26T15:39:00.104Z,9.89
2022-12-26T15:41:40.434Z,9.82
2022-12-26T15:44:21.820Z,9.83
2022-12-26T15:46:58.511Z,9.80
2022-12-26T15:49:50.706Z,9.71
2022-12-26T15:52:29.393Z,9.73
2022-12-26T15:55:36.030Z,9.78
2022-12-26T15:58:16.457Z,9.76
2022-12-26T16:00:50.589Z,9.83
2022-12-26T16:03:31.470Z,9.94
2022-12-26T16:06:15.013Z,9.92
2022-12-26T16:09:14.886Z,9.94
2022-12-26T16:11:56.482Z,9.90
2022-12-26T16:14:33.395Z,9.95
2022-12-26T16:17:18.981Z,9.94
2022-12-26T16:19:49.189Z,10.06
2022-12-26T16:22:42.229Z,10.01
2022-12-26T16:25:13.000Z,10.08
2022-12-26T16:27:43.337Z,9.79
2022-12-26T16:30:18.273Z,10.03
2022-12-26T16:32:48.109Z,10.03
2022-12-26T16:35:20.655Z,9.86
2022-12-26T16:37:51.045Z,9.92
2022-12-26T16:40:24.205Z,10.00
2022-12-26T16:43:02.469Z,10.01
2022-12-26T16:45:35.315Z,10.02
2022-12-26T16:48:07.688Z,9.95
2022-12-26T16:50:46.204Z,9.97
2022-12-26T16:53:16.356Z,9.76
2022-12-26T16:55:48.364Z,9.94
2022-12-26T16:58:21.884Z,9.55
2022-12-26T17:01:01.847Z,9.58
2022-12-26T17:03:38.422Z,9.70
2022-12-26T17:06:15.230Z,9.85
2022-12-26T17:08:46.194Z,9.86
2022-12-26T17:11:28.260Z,9.82
2022-12-26T17:14:01.444Z,9.80
2022-12-26T17:16:33.121Z,9.78
2022-12-26T17:19:12.646Z,9.72
2022-12-26T17:21:42.782Z,9.72
2022-12-26T17:24:28.274Z,9.62
2022-12-26T17:27:20.363Z,9.35
2022-12-26T17:30:01.211Z,9.92
2022-12-26T17:32:39.841Z,9.36
2022-12-26T17:35:14.848Z,9.83
2022-12-26T17:37:48.280Z,9.82
2022-12-26T17:40:29.219Z,9.87
2022-12-26T17:43:07.469Z,9.82
2022-12-26T17:45:40.108Z,9.31
2022-12-26T17:48:16.286Z,9.73
2022-12-26T17:50:47.790Z,9.26
2022-12-26T17:53:26.466Z,9.76
2022-12-26T17:55:57.518Z,9.52
2022-12-26T17:58:28.520Z,9.87
2022-12-26T18:01:02.406Z,9.64
2022-12-26T18:03:58.741Z,9.63
2022-12-26T18:06:35.893Z,9.67
2022-12-26T18:09:27.312Z,9.45
2022-12-26T18:12:16.552Z,9.12
2022-12-26T18:15:01.736Z,9.88
2022-12-26T18:17:35.897Z,9.22
2022-12-26T18:20:37.329Z,9.51
2022-12-26T18:23:20.767Z,9.45
2022-12-26T18:26:26.791Z,9.54
2022-12-26T18:29:07.609Z,9.59
2022-12-26T18:31:47.764Z,9.87
2022-12-26T18:34:41.468Z,9.71
2022-12-26T18:37:24.974Z,9.87
2022-12-26T18:40:05.080Z,9.16
2022-12-26T18:42:43.555Z,9.68
2022-12-26T18:45:22.092Z,9.64
2022-12-26T18:48:01.262Z,9.91
2022-12-26T18:50:37.627Z,9.72
2022-12-26T18:53:18.016Z,9.00
2022-12-26T18:55:54.157Z,9.86
2022-12-26T18:58:27.997Z,9.00
2022-12-26T19:00:59.078Z,9.59
2022-12-26T19:03:33.207Z,9.81
2022-12-26T19:06:04.059Z,9.60
2022-12-26T19:08:39.341Z,9.80
2022-12-26T19:11:15.969Z,9.52
2022-12-26T19:13:52.546Z,9.81
2022-12-26T19:16:27.274Z,9.29
2022-12-26T19:19:04.611Z,9.76
2022-12-26T19:21:39.069Z,9.43
2022-12-26T19:24:19.793Z,9.75
2022-12-26T19:26:52.549Z,9.26
2022-12-26T19:29:25.405Z,9.07
2022-12-26T19:31:58.503Z,9.40
2022-12-26T19:34:30.507Z,9.27
2022-12-26T19:37:04.113Z,9.10
2022-12-26T19:39:42.575Z,8.96
2022-12-26T19:42:14.815Z,9.45
2022-12-26T19:44:49.679Z,9.29
2022-12-26T19:47:19.250Z,9.62
2022-12-26T19:49:48.788Z,9.45
2022-12-26T19:52:19.709Z,9.28
2022-12-26T19:54:50.751Z,9.15
2022-12-26T19:57:22.628Z,9.16
2022-12-26T19:59:52.405Z,9.52
2022-12-26T20:02:21.406Z,9.75
2022-12-26T20:04:50.454Z,9.84
2022-12-26T20:07:20.264Z,9.77
2022-12-26T20:09:50.508Z,9.84
2022-12-26T20:12:19.791Z,9.47
2022-12-26T20:14:49.201Z,9.77
2022-12-26T20:17:22.295Z,9.27
2022-12-26T20:19:57.100Z,9.72
2022-12-26T20:22:28.333Z,9.92
2022-12-26T20:25:01.030Z,9.19
2022-12-26T20:27:35.005Z,9.90
2022-12-26T20:30:17.347Z,10.01
2022-12-26T20:32:56.486Z,9.58
2022-12-26T20:35:30.475Z,9.29
2022-12-26T20:38:19.795Z,9.27
2022-12-26T20:41:01.801Z,9.87
2022-12-26T20:43:36.848Z,10.00
2022-12-26T20:46:12.110Z,9.93
2022-12-26T20:48:44.234Z,9.52
2022-12-26T20:51:16.844Z,9.71
2022-12-26T20:53:45.866Z,9.90
2022-12-26T20:56:16.163Z,9.80
2022-12-26T20:58:45.216Z,9.83
2022-12-26T21:01:16.024Z,9.85
2022-12-26T21:03:44.625Z,9.61
2022-12-26T21:06:15.955Z,9.21
2022-12-26T21:08:47.793Z,9.40
2022-12-26T21:11:20.050Z,9.55
2022-12-26T21:13:51.160Z,9.22
2022-12-26T21:16:22.907Z,9.39
2022-12-26T21:18:51.985Z,9.39
2022-12-26T21:21:26.303Z,9.35
2022-12-26T21:23:57.320Z,9.31
2022-12-26T21:26:27.934Z,9.21
2022-12-26T21:28:58.338Z,9.25
2022-12-26T21:31:29.070Z,9.21
2022-12-26T21:33:58.676Z,9.17
2022-12-26T21:36:29.062Z,9.10
2022-12-26T21:38:59.005Z,9.13
2022-12-26T21:41:29.486Z,8.75
2022-12-26T21:43:58.102Z,9.05
2022-12-26T21:46:27.258Z,8.37
2022-12-26T21:48:56.908Z,9.04
2022-12-26T21:51:26.645Z,8.88
2022-12-26T21:54:15.973Z,8.80
2022-12-26T21:56:45.275Z,8.88
2022-12-26T21:59:32.361Z,8.58
2022-12-26T22:02:01.333Z,8.57
2022-12-26T22:04:29.434Z,8.81
2022-12-26T22:06:58.007Z,8.64
2022-12-26T22:09:27.183Z,8.62
2022-12-26T22:12:14.721Z,8.09
2022-12-26T22:14:43.667Z,8.54
2022-12-26T22:17:12.812Z,8.80
2022-12-26T22:19:41.709Z,8.81
2022-12-26T22:22:10.376Z,8.52
2022-12-26T22:24:38.961Z,8.36
2022-12-26T22:27:09.233Z,8.25
2022-12-26T22:29:38.059Z,8.39
2022-12-26T22:32:07.195Z,8.52
2022-12-26T22:34:35.737Z,8.61
2022-12-26T22:37:05.227Z,8.65
2022-12-26T22:39:34.972Z,8.77
2022-12-26T22:42:03.588Z,8.76
2022-12-26T22:44:33.715Z,8.64
2022-12-26T22:47:03.512Z,8.48
2022-12-26T22:49:32.650Z,8.37
2022-12-26T22:52:01.469Z,8.69
2022-12-26T22:54:30.173Z,8.15
2022-12-26T22:56:59.304Z,8.26
2022-12-26T23:00:06.228Z,8.23
2022-12-26T23:02:21.026Z,8.44
2022-12-26T23:04:50.826Z,8.58
2022-12-26T23:07:22.764Z,8.40
2022-12-26T23:09:52.197Z,8.39
2022-12-26T23:12:39.115Z,8.32
2022-12-26T23:15:09.895Z,7.96
2022-12-26T23:18:00.268Z,8.02
2022-12-26T23:20:50.046Z,8.16
2022-12-26T23:23:19.111Z,8.53
2022-12-26T23:25:48.369Z,8.30
2022-12-26T23:28:35.119Z,8.49
2022-12-26T23:31:05.385Z,7.95
2022-12-26T23:33:36.494Z,8.33
2022-12-26T23:36:05.780Z,8.27
2022-12-26T23:38:34.835Z,8.14
2022-12-26T23:41:03.560Z,8.11
2022-12-26T23:43:33.616Z,8.13
2022-12-26T23:46:08.826Z,7.93
2022-12-26T23:48:39.271Z,8.20
2022-12-26T23:51:09.720Z,7.55
2022-12-26T23:53:40.100Z,7.99
2022-12-26T23:56:09.747Z,7.85
2022-12-26T23:58:40.304Z,8.27
